Palmer Springs, Virginia
Current Conditions -  °F | °C
As of 6:55 PM on Saturday 22 Nov 2014 (Local Time) from KW63 Reporting Station
Clear Clear  
Wind Chill: 34°   Ceiling: Unl
Heat Index: 37°   Visibility: 10mi
Dew Point: 23°   Wind: 5mph
Humidity: 56%   Direction: 190°S
Pressure: 30.34"   Gusts: NA
Location:  36.658°N, 78.3793°W
Report Text: KW63 222355Z AUTO 19004KT 10SM CLR 03/M05 A3034 RMK AO1
Loading
Personal Weather Stations






























Interactive Weather Map New forecast layout! Learn more

10-Day Weather Forecast

Advertisements
Track Severe Weather on mobile